Login
Access
Login with your mtb-forum.it nickname and password.


You do not have an account? Sign up here for free

raffy80

Last training unit 06/11/2013
0
Followers
23 256 Km
itineraries
191 375 m
of total vertical gain
836
hours of riding
27.58 Km/h
average speed
127
average HR


06/11/2013 Show to everybody 06-11-2013 andria, apulia, italy 35.14 Km 606 m 01:57:05 18.01 Km\h Scott Addict r2
03/11/2013 Show to everybody 03-11-2013 barletta-andria-trani, italy, apulia, italy 91.72 Km 503 m 02:54:58 31.45 Km\h Scott Addict r2
01/11/2013 Show to everybody 01-11-2013 andria, apulia, italy 58.58 Km 729 m 02:56:34 19.91 Km\h Scott Addict r2
30/10/2013 Show to everybody 30-10-2013 andria, apulia, italy 46.42 Km 452 m 02:11:00 21.26 Km\h Scott Addict r2
27/10/2013 Show to everybody 27-10-2013 foggia, italy, apulia, italy 121.95 Km 1382 m 03:53:37 31.32 Km\h Scott Addict r2
25/10/2013 Show to everybody afternoon ride 46.67 Km 354 m 01:38:07 28.54 Km\h Scott Addict r2
24/10/2013 Show to everybody 24-10-2013 andria, apulia, italy 48.78 Km 438 m 01:38:39 29.67 Km\h Scott Addict r2
23/10/2013 Show to everybody 23-10-2013 andria, apulia, italy 55.22 Km 342 m 01:54:14 29 Km\h Scott Addict r2
20/10/2013 Show to everybody 20-10-2013 andria, apulia, italy 82.6 Km 591 m 02:42:26 30.51 Km\h Scott Addict r2
17/10/2013 Show to everybody 17-10-2013 andria, apulia, italy 36.75 Km 302 m 01:50:21 19.98 Km\h Scott Addict r2
15/10/2013 Show to everybody 15-10-2013 andria, apulia, italy 35.41 Km 144 m 01:25:42 24.79 Km\h Scott Addict r2
13/10/2013 Show to everybody 13-10-2013 rome, lazio, italy 103.95 Km 1435 m 03:09:03 32.99 Km\h Scott Addict r2
12/10/2013 Show to everybody 12-10-2013 andria, apulia, italy 33.06 Km 211 m 01:17:02 25.75 Km\h Scott Addict r2
10/10/2013 Show to everybody 10-10-2013 andria, apulia, italy 58.43 Km 459 m 02:05:17 27.98 Km\h Scott Addict r2
09/10/2013 Show to everybody 09-10-2013 andria, apulia, italy 45.89 Km 302 m 01:36:54 28.41 Km\h Scott Addict r2
06/10/2013 Show to everybody 06-10-2013 andria, apulia, italy 71.49 Km 240 m 02:10:02 32.99 Km\h Scott Addict r2
04/10/2013 Show to everybody 04-10-2013 andria, apulia, italy 47.2 Km 465 m 01:42:50 27.54 Km\h Scott Addict r2
02/10/2013 Show to everybody 02-10-2013 andria, apulia, italy 71.92 Km 716 m 02:28:58 28.97 Km\h Scott Addict r2
01/10/2013 Show to everybody 01-10-2013 andria, apulia, italy 12.93 Km 18 m 00:38:50 19.98 Km\h Scott Addict r2
29/09/2013 Show to everybody 29-09-2013 barletta-andria-trani, italy, apulia, italy 122.91 Km 984 m 03:54:08 31.5 Km\h Scott Addict r2
26/09/2013 Show to everybody 26-09-2013 andria, apulia, italy 81.53 Km 1002 m 02:48:40 29 Km\h Scott Addict r2
24/09/2013 Show to everybody 24-09-2013 andria, apulia, italy 44.09 Km 247 m 01:39:06 26.69 Km\h Scott Addict r2
22/09/2013 Show to everybody 22-09-2013 francavilla al mare, abruzzo, italy 101.94 Km 2059 m 04:02:31 25.22 Km\h Scott Addict r2
21/09/2013 Show to everybody 21-09-2013 andria, apulia, italy 28.13 Km 136 m 01:00:51 27.74 Km\h Scott Addict r2
18/09/2013 Show to everybody 18-09-2013 andria, apulia, italy 75.17 Km 540 m 02:35:10 29.07 Km\h Scott Addict r2
16/09/2013 Show to everybody 16-09-2013 andria, apulia, italy 88.8 Km 599 m 03:09:22 28.14 Km\h Scott Addict r2
15/09/2013 Show to everybody 15-09-2013 san giovanni rotondo, apulia, italy 82.71 Km 1073 m 02:19:20 35.61 Km\h Scott Addict r2
14/09/2013 Show to everybody 14-09-2013 andria, apulia, italy 29.96 Km 101 m 01:00:48 29.57 Km\h Scott Addict r2
13/09/2013 Show to everybody 13-09-2013 andria, apulia, italy 47.2 Km 444 m 01:37:42 28.98 Km\h Scott Addict r2
11/09/2013 Show to everybody 11-09-2013 andria, apulia, italy 62.41 Km 523 m 02:08:03 29.24 Km\h Scott Addict r2
10/09/2013 Show to everybody 10-09-2013 andria, apulia, italy 48.24 Km 201 m 01:40:24 28.83 Km\h Scott Addict r2
08/09/2013 Show to everybody 08-09-2013 ba, italy, apulia, italy 89.93 Km 908 m 02:39:15 33.88 Km\h Scott Addict r2
07/09/2013 Show to everybody 07-09-2013 andria, apulia, italy 44.41 Km 190 m 01:13:24 36.3 Km\h Scott Addict r2
05/09/2013 Show to everybody 05-09-2013 andria, apulia, italy 50.42 Km 462 m 01:42:20 29.56 Km\h Scott Addict r2
03/09/2013 Show to everybody 03-09-2013 andria, apulia, italy 43.5 Km 158 m 01:33:44 27.84 Km\h Scott Addict r2
01/09/2013 Show to everybody 01-09-2013 andria, apulia, italy 100.04 Km 923 m 03:25:46 29.17 Km\h Scott Addict r2
31/08/2013 Show to everybody 31-08-2013 andria, apulia, italy 57.37 Km 426 m 01:53:36 30.3 Km\h Scott Addict r2
29/08/2013 Show to everybody 29-08-2013 andria, apulia, italy 57.04 Km 169 m 01:48:26 31.56 Km\h Scott Addict r2
27/08/2013 Show to everybody 27-08-2013 andria, apulia, italy 39.37 Km 479 m 01:47:58 21.88 Km\h Scott Addict r2
25/08/2013 Show to everybody 25-08-2013 andria, apulia, italy 82.86 Km 602 m 02:48:13 29.56 Km\h Scott Addict r2
24/08/2013 Show to everybody 24-08-2013 andria, apulia, italy 48.95 Km 440 m 01:46:52 27.48 Km\h Scott Addict r2
22/08/2013 Show to everybody 22-08-2013 andria, apulia, italy 50.88 Km 356 m 01:47:48 28.32 Km\h Scott Addict r2
20/08/2013 Show to everybody 20-08-2013 andria, apulia, italy 54.11 Km 302 m 01:42:17 31.74 Km\h Scott Addict r2
17/08/2013 Show to everybody 17-08-2013 foggia, italy, apulia, italy 143.88 Km 2250 m 05:48:26 24.78 Km\h Scott Addict r2
16/08/2013 Show to everybody 16-08-2013 foggia, italy, apulia, italy 40.24 Km 577 m 01:39:58 24.15 Km\h Scott Addict r2
14/08/2013 Show to everybody 14-08-2013 foggia, italy, apulia, italy 116.94 Km 1874 m 04:44:26 24.67 Km\h Scott Addict r2
13/08/2013 Show to everybody 13-08-2013 foggia, italy, apulia, italy 21.5 Km 235 m 00:49:09 26.24 Km\h Scott Addict r2
09/08/2013 Show to everybody 09-08-2013 andria, apulia, italy 16.29 Km 122 m 00:57:16 17.07 Km\h Scott Addict r2
08/08/2013 Show to everybody 08-08-2013 andria, apulia, italy 45.74 Km 130 m 01:29:47 30.57 Km\h Scott Addict r2
06/08/2013 Show to everybody 06-08-2013 andria, apulia, italy 36.11 Km 121 m 01:27:28 24.77 Km\h Scott Addict r2
03/08/2013 Show to everybody 03-08-2013 andria, apulia, italy 100.49 Km 905 m 03:31:16 28.54 Km\h Scott Addict r2
02/08/2013 Show to everybody 02-08-2013 andria, apulia, italy 63.02 Km 673 m 02:18:49 27.24 Km\h Scott Addict r2
31/07/2013 Show to everybody 31-07-2013 andria, apulia, italy 45.87 Km 158 m 01:27:32 31.44 Km\h Scott Addict r2
30/07/2013 Show to everybody 30-07-2013 andria, apulia, italy 47.51 Km 769 m 01:48:11 26.35 Km\h Scott Addict r2
28/07/2013 Show to everybody 28-07-2013 andria, apulia, italy 66.33 Km 490 m 02:10:31 30.49 Km\h Scott Addict r2
28/07/2013 Show to everybody 28-07-2013 andria, apulia, italy 66.33 Km 490 m 02:10:31 30.49 Km\h Scott Addict r2
27/07/2013 Show to everybody 27-07-2013 andria, apulia, italy 44.95 Km 162 m 01:31:40 29.42 Km\h Scott Addict r2
26/07/2013 Show to everybody 26-07-2013 andria, apulia, italy 71.67 Km 640 m 02:28:26 28.97 Km\h Scott Addict r2
25/07/2013 Show to everybody 25-07-2013 andria, apulia, italy 45.73 Km 154 m 01:31:59 29.83 Km\h Scott Addict r2
24/07/2013 Show to everybody 24-07-2013 andria, apulia, italy 45.72 Km 389 m 01:38:28 27.86 Km\h Scott Addict r2
23/07/2013 Show to everybody 23-07-2013 andria, apulia, italy 46.31 Km 650 m 01:43:01 26.97 Km\h Scott Addict r2
21/07/2013 Show to everybody 21-07-2013 andria, apulia, italy 67.08 Km 525 m 02:19:37 28.83 Km\h Scott Addict r2
19/07/2013 Show to everybody 19-07-2013 andria, apulia, italy 48.63 Km 306 m 01:37:22 29.97 Km\h Scott Addict r2
16/07/2013 Show to everybody 16-07-2013 andria, apulia, italy 52.48 Km 177 m 01:39:58 31.5 Km\h Scott Addict r2
14/07/2013 Show to everybody 14-07-2013 andria, apulia, italy 64.19 Km 415 m 02:04:33 30.92 Km\h Scott Addict r2
13/07/2013 Show to everybody 13-07-2013 andria, apulia, italy 35.35 Km 279 m 01:38:44 21.48 Km\h Scott Addict r2
12/07/2013 Show to everybody 12-07-2013 andria, apulia, italy 39.07 Km 187 m 01:34:43 24.75 Km\h Scott Addict r2
11/07/2013 Show to everybody 11-07-2013 andria, apulia, italy 93.58 Km 1143 m 03:22:23 27.74 Km\h Scott Addict r2
09/07/2013 Show to everybody 09-07-2013 andria, apulia, italy 49.28 Km 229 m 01:42:20 28.89 Km\h Scott Addict r2
07/07/2013 Show to everybody 07_07_2013 andria, apulia, italy 93.83 Km 965 m 03:19:33 28.21 Km\h Scott Addict r2
06/07/2013 Show to everybody 06_07_2013 andria, apulia, italy 48.63 Km 170 m 01:32:22 31.59 Km\h Scott Addict r2
04/07/2013 Show to everybody 04_07_2013 andria, apulia, italy (1) 67.74 Km 739 m 02:30:55 26.93 Km\h Scott Addict r2
03/07/2013 Show to everybody 03_07_2013 andria, apulia, italy 47.73 Km 191 m 01:55:39 24.76 Km\h Scott Addict r2
02/07/2013 Show to everybody 02_07_2013 andria, apulia, italy 58.75 Km 460 m 01:59:53 29.41 Km\h Scott Addict r2
30/06/2013 Show to everybody 30_06_2013 andria, apulia, italy 91.39 Km 719 m 03:09:20 28.96 Km\h Scott Addict r2
29/06/2013 Show to everybody 29_06_2013 province of barletta-andria-trani, italy, apulia, italy 33.21 Km 99 m 01:09:00 28.87 Km\h Scott Addict r2
28/06/2013 Show to everybody 28_06_2013 andria, apulia, italy 59.1 Km 197 m 01:52:45 31.45 Km\h Scott Addict r2
26/06/2013 Show to everybody 26_06_2013 andria, apulia, italy 92.65 Km 950 m 03:20:58 27.66 Km\h Scott Addict r2
25/06/2013 Show to everybody 25_06_2013 andria, apulia, italy 48.47 Km 197 m 01:51:50 26 Km\h Scott Addict r2
22/06/2013 Show to everybody 22_06_2013 andria, apulia, italy 109.49 Km 889 m 03:39:36 29.92 Km\h Scott Addict r2
20/06/2013 Show to everybody 20_06_2013 andria, apulia, italy 54.38 Km 425 m 01:48:18 30.13 Km\h Scott Addict r2
19/06/2013 Show to everybody 19_06_2013 andria, apulia, italy 60.46 Km 230 m 02:01:16 29.91 Km\h Scott Addict r2
18/06/2013 Show to everybody 18_06_2013 andria, apulia, italy 48.36 Km 222 m 02:15:21 21.44 Km\h Scott Addict r2
16/06/2013 Show to everybody 16_06_2013 barletta, apulia, italy 74.66 Km 216 m 01:52:46 39.72 Km\h Scott Addict r2
16/06/2013 Show to everybody 16_06_2013 andria, apulia, italy 15.8 Km 5 m 00:30:41 30.9 Km\h Scott Addict r2
14/06/2013 Show to everybody 14_06_2013 andria, apulia, italy 39.03 Km 214 m 01:23:50 27.93 Km\h Scott Addict r2
13/06/2013 Show to everybody 13_06_2013 andria, apulia, italy 33.66 Km 134 m 01:12:39 27.8 Km\h Scott Addict r2
11/06/2013 Show to everybody 11_06_2013 andria, apulia, italy 59.88 Km 526 m 02:04:30 28.86 Km\h Scott Addict r2
09/06/2013 Show to everybody 09_06_2013 orta nova, apulia, italy 94.07 Km 576 m 02:28:35 37.99 Km\h Scott Addict r2
07/06/2013 Show to everybody 07_06_2013 andria, apulia, italy 54.57 Km 231 m 01:56:44 28.05 Km\h Scott Addict r2
05/06/2013 Show to everybody 05_06_2013 andria, apulia, italy 70.14 Km 686 m 02:28:38 28.31 Km\h Scott Addict r2
04/06/2013 Show to everybody 04_06_2013 andria, apulia, italy 43.96 Km 209 m 01:36:42 27.28 Km\h Scott Addict r2
02/06/2013 Show to everybody 02_06_2013 rionero in vulture, basilicata, italy 58mo posto 111.92 Km 1534 m 03:12:48 34.83 Km\h Scott Addict r2
01/06/2013 Show to everybody 01_06_2013 andria, apulia, italy 30.9 Km 194 m 01:07:25 27.5 Km\h Scott Addict r2
31/05/2013 Show to everybody 31_05_2013 andria, apulia, italy 37.98 Km 163 m 01:20:25 28.34 Km\h Scott Addict r2
29/05/2013 Show to everybody 29_05_2013 andria, apulia, italy 92.27 Km 861 m 03:16:29 28.18 Km\h Scott Addict r2
28/05/2013 Show to everybody 28_05_2013 andria, apulia, italy 50.63 Km 465 m 01:56:46 26.01 Km\h Scott Addict r2
26/05/2013 Show to everybody 26_05_2013 matera, basilicata, italy 34mo 73.89 Km 1071 m 02:16:27 32.49 Km\h Scott Addict r2
25/05/2013 Show to everybody 25_05_2013 andria, apulia, italy 33.6 Km 426 m 01:13:50 27.3 Km\h Scott Addict r2
23/05/2013 Show to everybody 23_05_2013 andria, apulia, italy 84.81 Km 549 m 03:07:26 27.15 Km\h Scott Addict r2
21/05/2013 Show to everybody 21_05_2013 andria, apulia, italy 67.29 Km 315 m 02:17:57 29.27 Km\h Scott Addict r2
18/05/2013 Show to everybody 18_05_2013 andria, apulia, italy 152.07 Km 1868 m 03:26:07 44.27 Km\h Scott Addict r2
18/05/2013 Show to everybody 19_05_2013 manfredonia, apulia, italy (1) 25.09 Km 65 m 00:57:11 26.33 Km\h Scott Addict r2
17/05/2013 Show to everybody 17_05_2013 andria, apulia, italy 64.09 Km 649 m 02:09:14 29.76 Km\h Scott Addict r2
16/05/2013 Show to everybody 16_05_2013 andria, apulia, italy 39.8 Km 589 m 02:07:43 18.7 Km\h Scott Addict r2
14/05/2013 Show to everybody 14_05_2013 andria, apulia, italy 51.58 Km 331 m 01:55:38 26.76 Km\h Scott Addict r2
09/05/2013 Show to everybody 09_05_2013 andria, apulia, italy andata e ritorno da mola per vedere il giro ai 36, 8 km_h di media 151.86 Km 491 m 04:06:41 36.94 Km\h Scott Addict r2
07/05/2013 Show to everybody 07_05_2013 andria, apulia, italy 78.35 Km 604 m 02:33:45 30.58 Km\h Scott Addict r2
05/05/2013 Show to everybody 05_05_2013 andria, apulia, italy 87.16 Km 583 m 02:52:37 30.3 Km\h Scott Addict r2
04/05/2013 Show to everybody 04_05_2013 andria, apulia, italy 26.29 Km 91 m 00:55:16 28.54 Km\h Scott Addict r2
03/05/2013 Show to everybody 03_05_2013 andria, apulia, italy 28.2 Km 167 m 01:18:26 21.57 Km\h Scott Addict r2
01/05/2013 Show to everybody 01_05_2013 andria, apulia, italy 100.81 Km 891 m 03:14:00 31.18 Km\h Scott Addict r2
30/04/2013 Show to everybody 30_04_2013 andria, apulia, italy 35.91 Km 196 m 01:24:27 25.52 Km\h Scott Addict r2
28/04/2013 Show to everybody 28_04_2013 canosa di puglia, apulia, italy ottimo gara a soli 1\` e26\`\` dal primo 84.15 Km 873 m 02:03:26 40.9 Km\h Scott Addict r2
26/04/2013 Show to everybody 26_04_2013 andria, apulia, italy 38.84 Km 205 m 01:26:18 27 Km\h Scott Addict r2
25/04/2013 Show to everybody 25_04_2013 trinitapoli, apulia, italy 90.38 Km 402 m 02:28:02 36.63 Km\h Scott Addict r2
24/04/2013 Show to everybody 24_04_2013 andria, apulia, italy 41.13 Km 228 m 01:28:19 27.94 Km\h Scott Addict r2
23/04/2013 Show to everybody 23_04_2013 andria, apulia, italy 35.33 Km 238 m 01:11:05 29.82 Km\h Scott Addict r2
21/04/2013 Show to everybody 21_04_2013 andria, apulia, italy 32.62 Km 190 m 01:05:58 29.67 Km\h Scott Addict r2
20/04/2013 Show to everybody 20_04_2013 andria, apulia, italy 33.03 Km 118 m 01:13:07 27.11 Km\h Scott Addict r2
18/04/2013 Show to everybody 18_04_2013 andria, apulia, italy 53.62 Km 347 m 01:50:29 29.12 Km\h Scott Addict r2
17/04/2013 Show to everybody 17_04_2013 andria, apulia, italy 39.9 Km 193 m 01:25:27 28.01 Km\h Scott Addict r2
16/04/2013 Show to everybody 16_04_2013 andria, apulia, italy 39.93 Km 165 m 01:19:34 30.11 Km\h Scott Addict r2
13/04/2013 Show to everybody 13_04_2013 andria, apulia, italy 69.15 Km 648 m 02:29:17 27.79 Km\h Scott Addict r2
11/04/2013 Show to everybody 11_04_2013 andria, apulia, italy 144.56 Km 1271 m 04:33:10 31.75 Km\h Scott Addict r2
09/04/2013 Show to everybody 09_04_2013 andria, apulia, italy 75.53 Km 542 m 02:39:41 28.38 Km\h Scott Addict r2
07/04/2013 Show to everybody 07_04_2013 candela, apulia, italy 104.89 Km 1867 m 03:26:10 30.53 Km\h Scott Addict r2
06/04/2013 Show to everybody 06_04_2013 andria, apulia, italy 31.93 Km 143 m 01:09:48 27.44 Km\h Scott Addict r2
04/04/2013 Show to everybody 04_04_2013 andria, apulia, italy 71.64 Km 554 m 02:27:27 29.15 Km\h Scott Addict r2
03/04/2013 Show to everybody 03_04_2013 andria, apulia, italy 58.87 Km 486 m 01:55:24 30.61 Km\h Scott Addict r2
01/04/2013 Show to everybody 01_04_2013 andria, apulia, italy 100.6 Km 946 m 03:28:29 28.95 Km\h Scott Addict r2
31/03/2013 Show to everybody 31_03_2013 andria, apulia, italy 95.28 Km 443 m 03:06:05 30.72 Km\h Scott Addict r2
30/03/2013 Show to everybody 30_03_2013 andria, apulia, italy 44.55 Km 242 m 01:37:03 27.54 Km\h Scott Addict r2
27/03/2013 Show to everybody 27_03_2013 province of bari, italy, apulia, italy 12.53 Km 38 m 00:25:00 30.06 Km\h Scott Addict r2
26/03/2013 Show to everybody 26_03_2013 andria, apulia, italy 58.14 Km 273 m 02:02:08 28.56 Km\h Scott Addict r2
24/03/2013 Show to everybody 24_03_2013 andria, apulia, italy 107.31 Km 868 m 03:29:47 30.69 Km\h Scott Addict r2
23/03/2013 Show to everybody 23_03_2013 andria, province of barletta-andria-trani, italy, apulia, italy 43.97 Km 460 m 01:37:18 27.11 Km\h Scott Addict r2
22/03/2013 Show to everybody 22_03_2013 andria, apulia, italy 73.33 Km 322 m 02:31:09 29.11 Km\h Scott Addict r2
20/03/2013 Show to everybody 20_03_2013 andria, apulia, italy 55.67 Km 206 m 01:57:41 28.38 Km\h Scott Addict r2
19/03/2013 Show to everybody 19_03_2013 andria, apulia, italy 69.29 Km 282 m 02:29:58 27.72 Km\h Scott Addict r2
17/03/2013 Show to everybody 17_03_2013 italia 80.95 Km 632 m 03:00:36 26.89 Km\h Scott Addict r2
13/03/2013 Show to everybody 13_03_2013 andria, apulia, italy 79.86 Km 296 m 02:43:58 29.22 Km\h Scott Addict r2
12/03/2013 Show to everybody 12_03_2013 andria, apulia, italy 47.76 Km 119 m 01:40:04 28.63 Km\h Scott Addict r2
10/03/2013 Show to everybody 10_03_2013 cerignola, apulia, italy 109.2 Km 1100 m 03:07:12 35 Km\h Scott Addict r2
08/03/2013 Show to everybody 08_03_2013 andria, apulia, italy 28.72 Km 92 m 01:00:55 28.28 Km\h Scott Addict r2
07/03/2013 Show to everybody 07_03_2013 andria, apulia, italy 96.69 Km 942 m 03:12:08 30.19 Km\h Scott Addict r2
05/03/2013 Show to everybody 05_03_2013 andria, apulia, italy 62.26 Km 526 m 02:15:34 27.55 Km\h Scott Addict r2
03/03/2013 Show to everybody 03_03_2013 andria, apulia, italy 84.33 Km 598 m 02:53:18 29.2 Km\h Scott Addict r2
01/03/2013 Show to everybody 01_03_2013 andria, apulia, italy 48.01 Km 181 m 01:40:37 28.63 Km\h Scott Addict r2
28/02/2013 Show to everybody 28_02_2013 andria, apulia, italy 55.83 Km 603 m 02:05:00 26.8 Km\h Scott Addict r2
27/02/2013 Show to everybody 27_02_2013 andria, apulia, italy 42.85 Km 185 m 01:39:15 25.91 Km\h Scott Addict r2
26/02/2013 Show to everybody 26_02_2013 andria, apulia, italy 62.47 Km 537 m 02:03:57 30.24 Km\h Scott Addict r2
24/02/2013 Show to everybody 24_02_2013 andria, apulia, italy 81.69 Km 558 m 02:48:59 29.01 Km\h Scott Addict r2
23/02/2013 Show to everybody 23_02_2013 andria, apulia, italy 40.15 Km 281 m 01:24:44 28.43 Km\h Scott Addict r2
22/02/2013 Show to everybody 22_02_2013 andria, apulia, italy 55.57 Km 281 m 01:49:54 30.34 Km\h Scott Addict r2
20/02/2013 Show to everybody 20_02_2013 andria, apulia, italy 46.44 Km 228 m 01:38:35 28.26 Km\h Scott Addict r2
19/02/2013 Show to everybody 19_02_2013 andria, apulia, italy 54.05 Km 568 m 02:04:35 26.03 Km\h Scott Addict r2
17/02/2013 Show to everybody 17_02_2013 andria, apulia, italy 89.6 Km 760 m 03:10:12 28.26 Km\h Scott Addict r2
15/02/2013 Show to everybody 15_02_2013 andria, apulia, italy 96.21 Km 467 m 03:13:40 29.81 Km\h Scott Addict r2
13/02/2013 Show to everybody 13_02_2013 andria, apulia, italy 30.62 Km 185 m 01:28:08 20.84 Km\h Scott Addict r2
12/02/2013 Show to everybody 12_02_2013 andria, apulia, italy 40.23 Km 501 m 01:34:42 25.49 Km\h Scott Addict r2
10/02/2013 Show to everybody 10_02_2013 andria, apulia, italy 43.99 Km 479 m 02:14:25 19.63 Km\h Scott Addict r2
09/02/2013 Show to everybody 09_02_2013 andria, apulia, italy 29.12 Km 71 m 01:00:01 29.11 Km\h Scott Addict r2
06/02/2013 Show to everybody 06_02_2013 andria, apulia, italy 63.17 Km 916 m 02:37:42 24.03 Km\h Scott Addict r2
05/02/2013 Show to everybody 05_02_2013 andria, apulia, italy 49.69 Km 807 m 02:02:21 24.37 Km\h Scott Addict r2
03/02/2013 Show to everybody 03_02_2013 andria, apulia, italy 111.28 Km 837 m 03:37:23 30.71 Km\h Scott Addict r2
01/02/2013 Show to everybody 01_02_2013 andria, apulia, italy 50.34 Km 302 m 01:54:25 26.4 Km\h Scott Addict r2
31/01/2013 Show to everybody 31_01_2013 andria, apulia, italy 64.79 Km 674 m 02:22:16 27.32 Km\h Scott Addict r2
29/01/2013 Show to everybody 29_01_2013 andria, apulia, italy 61.63 Km 806 m 02:28:03 24.98 Km\h Scott Addict r2
27/01/2013 Show to everybody 27_01_2013 andria, apulia, italy 102.21 Km 948 m 03:45:39 27.18 Km\h Scott Addict r2
26/01/2013 Show to everybody 26_01_2013 andria, apulia, italy 47.16 Km 615 m 01:54:00 24.82 Km\h Scott Addict r2
25/01/2013 Show to everybody 25_01_2013 andria, apulia, italy 32.64 Km 105 m 01:10:28 27.79 Km\h Scott Addict r2
23/01/2013 Show to everybody 23_01_2013 andria, apulia, italy 52.2 Km 246 m 01:50:57 28.23 Km\h Scott Addict r2
22/01/2013 Show to everybody 22_01_2013 andria, apulia, italy 48.13 Km 691 m 01:52:41 25.63 Km\h Scott Addict r2
20/01/2013 Show to everybody 20_01_2013 andria, apulia, italy 117.1 Km 1197 m 04:24:03 26.61 Km\h Scott Addict r2
19/01/2013 Show to everybody 19_01_2013 andria, apulia, italy 49.13 Km 255 m 01:55:39 25.49 Km\h Scott Addict r2
17/01/2013 Show to everybody 17_01_2013 andria, apulia, italy 27.38 Km 89 m 00:52:30 31.29 Km\h Scott Addict r2
16/01/2013 Show to everybody 16_01_2013 andria, apulia, italy 83.53 Km 641 m 03:10:40 26.29 Km\h Scott Addict r2
13/01/2013 Show to everybody 13_01_2013 andria, apulia, italy 103.8 Km 1195 m 03:48:28 27.26 Km\h Scott Addict r2
11/01/2013 Show to everybody 11_01_2013 andria, apulia, italy 60.99 Km 811 m 02:29:37 24.46 Km\h Scott Addict r2
10/01/2013 Show to everybody 10_01_2013 andria, apulia, italy 30.99 Km 274 m 01:24:41 21.96 Km\h Scott Addict r2
08/01/2013 Show to everybody 08_01_2013 andria, apulia, italy 59.74 Km 874 m 02:19:48 25.64 Km\h Scott Addict r2
06/01/2013 Show to everybody 06_01_2013 andria, apulia, italy 119.11 Km 1124 m 04:25:50 26.88 Km\h Scott Addict r2
05/01/2013 Show to everybody 05_01_2013 andria, apulia, italy 34.67 Km 128 m 01:18:37 26.46 Km\h Scott Addict r2
04/01/2013 Show to everybody 04_01_2013 andria, apulia, italy 49.49 Km 175 m 01:55:06 25.8 Km\h Scott Addict r2
03/01/2013 Show to everybody 03_01_2013 andria, apulia, italy 74.66 Km 1011 m 02:51:15 26.16 Km\h Scott Addict r2
01/01/2013 Show to everybody 01_01_2013 andria, apulia, italy 48.44 Km 181 m 01:39:16 29.28 Km\h Scott Addict r2
30/12/2012 Show to everybody 30_12_2012 andria, apulia, italy 129.76 Km 853 m 04:31:40 28.66 Km\h Scott Addict r2
29/12/2012 Show to everybody 29_12_2012 andria, apulia, italy 31.86 Km 116 m 01:16:41 24.92 Km\h Scott Addict r2
28/12/2012 Show to everybody 28_12_2012 andria, apulia, italy 53.42 Km 359 m 02:00:12 26.66 Km\h Scott Addict r2
26/12/2012 Show to everybody 26_12_2012 andria, apulia, italy 85.63 Km 334 m 02:56:39 29.08 Km\h Scott Addict r2
25/12/2012 Show to everybody 25_12_2012 andria, apulia, italy 50.04 Km 233 m 01:57:10 25.63 Km\h Scott Addict r2
23/12/2012 Show to everybody 23_12_2012 andria, apulia, italy 88.82 Km 644 m 03:03:48 28.99 Km\h Scott Addict r2
22/12/2012 Show to everybody 22_12_2012 andria, apulia, italy 65.32 Km 616 m 02:34:38 25.35 Km\h Scott Addict r2
20/12/2012 Show to everybody 20_12_2012 andria, apulia, italy 24.44 Km 321 m 01:18:12 18.75 Km\h Scott Addict r2
17/12/2012 Show to everybody 17_12_2012 andria, apulia, italy 23.22 Km 267 m 01:39:29 14 Km\h Scott Addict r2
16/12/2012 Show to everybody 16_12_2012 andria, apulia, italy 101.58 Km 1018 m 03:35:22 28.3 Km\h Scott Addict r2
13/12/2012 Show to everybody 13_12_2012 andria, apulia, italy 24.56 Km 249 m 01:08:33 21.5 Km\h Scott Addict r2
11/12/2012 Show to everybody 11_12_2012 andria, apulia, italy 61.14 Km 531 m 02:23:54 25.49 Km\h Scott Addict r2
09/12/2012 Show to everybody 09_12_2012 andria, apulia, italy 39.26 Km 279 m 01:38:26 23.93 Km\h Merida BIG NINE
07/12/2012 Show to everybody 07_12_2012 andria, apulia, italy 40 Km 516 m 02:00:38 19.89 Km\h Merida BIG NINE
06/12/2012 Show to everybody 06_12_2012 andria, apulia, italy 25.77 Km 101 m 01:17:00 20.08 Km\h Merida BIG NINE
04/12/2012 Show to everybody 04_12_2012 andria, apulia, italy 33.13 Km 268 m 01:27:33 22.71 Km\h Merida BIG NINE
03/12/2012 Show to everybody 03_12_2012 andria, apulia, italy 35.7 Km 149 m 01:30:16 23.73 Km\h Merida BIG NINE
30/11/2012 Show to everybody 30_11_2012 andria, apulia, italy 39.67 Km 414 m 02:02:59 19.35 Km\h Merida BIG NINE
29/11/2012 Show to everybody 29_11_2012 andria, apulia, italy 56.16 Km 321 m 02:01:49 27.66 Km\h Scott Addict r2
27/11/2012 Show to everybody 27_11_2012 andria, apulia, italy 60.57 Km 194 m 02:14:49 26.96 Km\h Scott Addict r2
25/11/2012 Show to everybody 25_11_2012 andria, apulia, italy 93.72 Km 368 m 03:10:24 29.53 Km\h Scott Addict r2
23/11/2012 Show to everybody 23_11_2012 andria, apulia, italy 53.7 Km 317 m 02:09:48 24.82 Km\h Scott Addict r2
22/11/2012 Show to everybody 22_11_2012 andria, apulia, italy 56.22 Km 348 m 02:21:49 23.78 Km\h Scott Addict r2
21/11/2012 Show to everybody 21_11_2012 andria, apulia, italy 58.29 Km 242 m 02:12:19 26.43 Km\h Scott Addict r2
18/11/2012 Show to everybody 18_11_2012 andria, apulia, italy 95.38 Km 306 m 03:26:46 27.68 Km\h Scott Addict r2
17/11/2012 Show to everybody 17_11_2012 andria, apulia, italy 29.52 Km 124 m 01:26:05 20.57 Km\h Scott Addict r2
10/11/2012 Show to everybody 10_11_2012 andria, apulia, italy 78.11 Km 789 m 03:03:54 25.48 Km\h Scott Addict r2
06/11/2012 Show to everybody 06_11_2012 andria, apulia, italy 66.82 Km 210 m 02:27:08 27.25 Km\h Scott Addict r2
04/11/2012 Show to everybody 04_11_2012 andria, apulia, italy 9th posto assoluto 38.38 Km 534 m 01:37:47 23.55 Km\h Scott Addict r2
02/11/2012 Show to everybody 02_11_2012 andria, apulia, italy 46.13 Km 623 m 02:18:24 20 Km\h Scott Addict r2
01/11/2012 Show to everybody 01_11_2012 andria, apulia, italy 54.42 Km 499 m 02:33:36 21.26 Km\h Scott Addict r2
30/10/2012 Show to everybody 30_10_2012 andria, apulia, italy 57.21 Km 204 m 02:06:48 27.07 Km\h Scott Addict r2
28/10/2012 Show to everybody 28_10_2012 andria, apulia, italy 38.55 Km 424 m 01:39:42 23.2 Km\h Scott Addict r2
25/10/2012 Show to everybody 25_10_2012 andria, apulia, italy 41.65 Km 573 m 02:10:27 19.16 Km\h Scott Addict r2
23/10/2012 Show to everybody 23_10_2012 andria, apulia, italy 45.53 Km 620 m 02:25:59 18.71 Km\h Scott Addict r2
21/10/2012 Show to everybody 21_10_2012 andria, puglia, italy 44.73 Km 447 m 02:01:49 22.03 Km\h Scott Addict r2
18/10/2012 Show to everybody 18_10_2012 andria, puglia, italy 65.83 Km 712 m 02:20:35 28.1 Km\h Scott Addict r2
16/10/2012 Show to everybody 16_10_2012 andria, puglia, italy 28.21 Km 111 m 01:18:24 21.59 Km\h Scott Addict r2
11/10/2012 Show to everybody 11_10_2012 andria, puglia, italy 37.2 Km 340 m 02:02:08 18.27 Km\h Scott Addict r2
09/10/2012 Show to everybody 09_10_2012 andria, puglia, italy 39.03 Km 342 m 01:45:28 22.2 Km\h Scott Addict r2
07/10/2012 Show to everybody 07_10_2012 bitetto, puglia, italy gara bitetto 8vo 67.55 Km 297 m 01:44:25 38.81 Km\h Scott Addict r2
05/10/2012 Show to everybody 05_10_2012 andria, puglia, italy 43.29 Km 356 m 02:10:22 19.92 Km\h Merida Matts t800
04/10/2012 Show to everybody 04_10_2012 andria, puglia, italy 55.31 Km 286 m 02:04:18 26.7 Km\h Scott Addict r2
02/10/2012 Show to everybody 02_10_2012 andria, puglia, italy 22.93 Km 77 m 00:36:41 37.5 Km\h Scott Addict r2
30/09/2012 Show to everybody 30_09_2012 andria, puglia, italy 39.75 Km 440 m 01:52:22 21.22 Km\h Merida Matts t800
28/09/2012 Show to everybody 28_09_2012 andria, puglia, italy 35.77 Km 336 m 01:44:48 20.48 Km\h Merida Matts t800
25/09/2012 Show to everybody 25_09_2012 andria, puglia, italy 57.43 Km 325 m 02:12:45 25.96 Km\h Scott Addict r2
23/09/2012 Show to everybody 23_09_2012 andria, puglia, italy 143.82 Km 1367 m 05:02:46 28.5 Km\h Scott Addict r2
22/09/2012 Show to everybody 22_09_2012 andria, puglia, italy 48.85 Km 216 m 01:50:57 26.42 Km\h Scott Addict r2
20/09/2012 Show to everybody 20_09_2012 andria, puglia, italy 37.97 Km 459 m 01:59:18 19.1 Km\h Scott Addict r2
18/09/2012 Show to everybody 18_09_2012 andria, puglia, italy 59.27 Km 209 m 01:56:20 30.57 Km\h Scott Addict r2
16/09/2012 Show to everybody 16_09_2012 cerignola, puglia, italy 111.82 Km 1079 m 03:13:16 34.71 Km\h Scott Addict r2
15/09/2012 Show to everybody 15_09_2012 andria, puglia, italy 39.55 Km 153 m 01:35:23 24.88 Km\h Scott Addict r2
14/09/2012 Show to everybody 14_09_2012 andria, puglia, italy 31.16 Km 106 m 01:04:41 28.91 Km\h Scott Addict r2
12/09/2012 Show to everybody 12_09_2012 andria, puglia, italy 39.22 Km 143 m 01:31:35 25.7 Km\h Scott Addict r2
11/09/2012 Show to everybody 11_09_2012 andria, puglia, italy 62.65 Km 471 m 02:07:27 29.5 Km\h Scott Addict r2
09/09/2012 Show to everybody 09_09_2012 francavilla al mare, abruzzo, italy 103.64 Km 2020 m 04:06:40 25.21 Km\h Scott Addict r2
08/09/2012 Show to everybody 08_09_2012 andria, puglia, italy 43.15 Km 181 m 01:41:59 25.39 Km\h Scott Addict r2
06/09/2012 Show to everybody 06_09_2012 andria, puglia, italy 71 Km 660 m 02:36:17 27.26 Km\h Scott Addict r2
04/09/2012 Show to everybody 04_09_2012 andria, puglia, italy 53.29 Km 242 m 01:40:08 31.93 Km\h Scott Addict r2
02/09/2012 Show to everybody 02_09_2012 andria, puglia, italy 122.28 Km 1090 m 04:21:13 28.09 Km\h Scott Addict r2
01/09/2012 Show to everybody 01_09_2012 andria, puglia, italy 55.59 Km 535 m 01:57:24 28.41 Km\h Scott Addict r2
30/08/2012 Show to everybody 30_08_2012 andria, puglia, italy 39.99 Km 195 m 01:33:26 25.68 Km\h Scott Addict r2
29/08/2012 Show to everybody 29_08_2012 andria, puglia, italy 44.21 Km 410 m 01:36:10 27.58 Km\h Scott Addict r2
28/08/2012 Show to everybody 28_08_2012 andria, puglia, italy 29.27 Km 163 m 01:14:09 23.69 Km\h Scott Addict r2
26/08/2012 Show to everybody 26_08_2012 andria, puglia, italy 83.71 Km 846 m 02:46:50 30.11 Km\h Scott Addict r2
25/08/2012 Show to everybody 25_08_2012 andria, puglia, italy 56.19 Km 192 m 02:04:13 27.14 Km\h Scott Addict r2
24/08/2012 Show to everybody 24_08_2012 andria, puglia, italy 59.99 Km 422 m 01:57:03 30.75 Km\h Scott Addict r2
22/08/2012 Show to everybody 22_08_2012 andria, puglia, italy 51.2 Km 369 m 01:45:38 29.08 Km\h Scott Addict r2
21/08/2012 Show to everybody 21_08_2012 andria, puglia, italy 52.02 Km 405 m 01:44:53 29.76 Km\h Scott Addict r2
19/08/2012 Show to everybody 19_08_2012 andria, puglia, italy 80.93 Km 338 m 02:39:39 30.41 Km\h Scott Addict r2
18/08/2012 Show to everybody 18_08_2012 andria, puglia, italy 64.29 Km 330 m 02:15:46 28.41 Km\h Scott Addict r2
16/08/2012 Show to everybody 16_08_2012 andria, puglia, italy 77.98 Km 725 m 02:36:34 29.88 Km\h Scott Addict r2
14/08/2012 Show to everybody 14_08_2012 andria, puglia, italy (2) 138.43 Km 1862 m 05:24:46 25.58 Km\h Scott Addict r2
12/08/2012 Show to everybody 12_08_2012 andria, puglia, italy 53.92 Km 479 m 02:01:41 26.59 Km\h Scott Addict r2
10/08/2012 Show to everybody 10_08_2012 andria, puglia, italy 96.91 Km 862 m 03:12:46 30.16 Km\h Scott Addict r2
09/08/2012 Show to everybody 09_08_2012 andria, puglia, italy 63.99 Km 441 m 02:20:13 27.38 Km\h Scott Addict r2
08/08/2012 Show to everybody 08_08_2012 andria, puglia, italy 37.48 Km 286 m 01:38:17 22.88 Km\h Scott Addict r2
07/08/2012 Show to everybody 07_08_2012 andria, puglia, italy 63.46 Km 332 m 02:00:14 31.67 Km\h Scott Addict r2
04/08/2012 Show to everybody 04_08_2012 prad am stilfser joch, south tyrol, italy, trentino-alto adige, italy 27.45 Km 1886 m 02:15:55 12.12 Km\h Scott Addict r2
03/08/2012 Show to everybody 03_08_2012 bronzolo, trentino-alto adige, italy 102.59 Km 1738 m 04:39:54 21.99 Km\h Scott Addict r2
01/08/2012 Show to everybody 01_08_2012 vigo di fassa, trentino, italy, trentino-alto adige, italy 84.56 Km 2146 m 03:56:30 21.45 Km\h Scott Addict r2
30/07/2012 Show to everybody 30_07_2012 vigo di fassa, trentino, italy, trentino-alto adige, italy 80.59 Km 2251 m 03:57:45 20.34 Km\h Scott Addict r2
29/07/2012 Show to everybody 29_07_2012 alba penia, trentino-alto adige, italy 72.53 Km 2079 m 03:39:56 19.79 Km\h Scott Addict r2
26/07/2012 Show to everybody 26_07_2012 andria, puglia, italy 66.52 Km 497 m 02:21:57 28.12 Km\h Scott Addict r2
24/07/2012 Show to everybody 24_07_2012 andria, puglia, italy 37.31 Km 199 m 01:27:07 25.7 Km\h Scott Addict r2
21/07/2012 Show to everybody 21_07_2012 andria, puglia, italy 71.24 Km 442 m 02:16:59 31.21 Km\h Scott Addict r2
19/07/2012 Show to everybody 19_07_2012 andria, puglia, italy 57.34 Km 562 m 01:59:30 28.79 Km\h Scott Addict r2
17/07/2012 Show to everybody 17_07_2012 andria, puglia, italy 73.24 Km 613 m 02:26:34 29.98 Km\h Scott Addict r2
15/07/2012 Show to everybody 15_07_2012 andria, puglia, italy 58.92 Km 538 m 02:06:30 27.94 Km\h Scott Addict r2
14/07/2012 Show to everybody 14_07_2012 andria, puglia, italy 72.69 Km 589 m 02:29:41 29.14 Km\h Scott Addict r2
12/07/2012 Show to everybody 12_07_2012 andria, puglia, italy 69.06 Km 671 m 02:25:21 28.51 Km\h Scott Addict r2
10/07/2012 Show to everybody 10_07_2012 andria, puglia, italy 65.1 Km 332 m 02:01:28 32.16 Km\h Scott Addict r2
08/07/2012 Show to everybody 08_07_2012 andria, puglia, italy 68.81 Km 321 m 02:11:39 31.36 Km\h Scott Addict r2
07/07/2012 Show to everybody 07_07_2012 andria, puglia, italy 74.66 Km 411 m 02:25:43 30.74 Km\h Scott Addict r2
05/07/2012 Show to everybody 05_07_2012 andria, puglia, italy 36.4 Km 339 m 01:40:06 21.82 Km\h Scott Addict r2
03/07/2012 Show to everybody 03_07_2012 andria, puglia, italy 59.64 Km 158 m 02:00:07 29.79 Km\h Scott Addict r2
30/06/2012 Show to everybody 30_06_2012 andria, puglia, italy 69.13 Km 575 m 02:32:35 27.18 Km\h Scott Addict r2
29/06/2012 Show to everybody 29_06_2012 andria, puglia, italy 45.25 Km 191 m 01:49:59 24.69 Km\h Scott Addict r2
27/06/2012 Show to everybody 27_06_2012 andria, puglia, italy 48.25 Km 302 m 01:47:17 26.98 Km\h Scott Addict r2
26/06/2012 Show to everybody 26_06_2012 andria, puglia, italy 38.58 Km 184 m 01:49:35 21.12 Km\h Merida Matts t800
24/06/2012 Show to everybody 24_06_2012 andria, puglia, italy 72.43 Km 492 m 02:28:55 29.18 Km\h Scott Addict r2
23/06/2012 Show to everybody 23_06_2012 andria, puglia, italy 32.3 Km 159 m 01:08:24 28.33 Km\h Scott Addict r2
22/06/2012 Show to everybody 22_06_2012 andria, puglia, italy 47.6 Km 163 m 01:42:48 27.78 Km\h Scott Addict r2
21/06/2012 Show to everybody 21_06_2012 andria, puglia, italy 36.97 Km 90 m 01:16:26 29.02 Km\h Scott Addict r2
20/06/2012 Show to everybody 20_06_2012 andria, puglia, italy 47.41 Km 744 m 01:50:35 25.73 Km\h Scott Addict r2
18/06/2012 Show to everybody 18_06_2012 andria, puglia, italy 25.15 Km 78 m 00:57:56 26.05 Km\h Scott Addict r2
17/06/2012 Show to everybody 17_06_2012 orta nova, puglia, italy 125.89 Km 1254 m 04:10:46 30.12 Km\h Scott Addict r2
16/06/2012 Show to everybody Allenamento 16-06-12 alle 04:12 31.87 Km 92 m 01:10:01 27.31 Km\h Scott Addict r2
14/06/2012 Show to everybody 14_06_2012 andria, puglia, italy 50.17 Km 777 m 01:55:32 26.06 Km\h Scott Addict r2
13/06/2012 Show to everybody 13_06_2012 andria, puglia, italy 46.47 Km 246 m 01:59:42 23.29 Km\h Merida Matts t800
12/06/2012 Show to everybody Allenamento 12-06-12 alle 03:52 42.45 Km 155 m 01:32:40 27.49 Km\h Scott Addict r2
10/06/2012 Show to everybody 10_06_2012 rionero in vulture, basilicata, italy 106.07 Km 1691 m 03:13:36 32.87 Km\h Scott Addict r2
08/06/2012 Show to everybody 08_06_2012 andria, puglia, italy 45.02 Km 286 m 01:30:21 29.89 Km\h Scott Addict r2
07/06/2012 Show to everybody 07_06_2012 andria, puglia, italy 53.41 Km 653 m 01:57:25 27.29 Km\h Scott Addict r2
04/06/2012 Show to everybody 04_06_2012 andria, puglia, italy 34.85 Km 78 m 01:15:57 27.53 Km\h Scott Addict r2
02/06/2012 Show to everybody 02_06_2012 andria, puglia, italy 88.04 Km 769 m 02:56:25 29.94 Km\h Scott Addict r2
01/06/2012 Show to everybody 01_06_2012 andria, puglia, italy 36.71 Km 102 m 01:23:42 26.31 Km\h Scott Addict r2
31/05/2012 Show to everybody 31_05_2012 andria, puglia, italy 54.61 Km 164 m 01:49:09 30.02 Km\h Scott Addict r2
29/05/2012 Show to everybody 29_05_2012 andria, puglia, italy 43.36 Km 562 m 01:35:48 27.16 Km\h Scott Addict r2
27/05/2012 Show to everybody 05_27_2012 corato, puglia, italy 161.43 Km 1231 m 04:58:58 32.4 Km\h Scott Addict r2
26/05/2012 Show to everybody 05_26_2012 andria, puglia, italy 32.14 Km 114 m 01:10:18 27.43 Km\h Scott Addict r2
25/05/2012 Show to everybody 05_25_2012 andria, puglia, italy 42.49 Km 197 m 01:29:32 28.48 Km\h Scott Addict r2
23/05/2012 Show to everybody 05_23_2012 andria, puglia, italy 4x7\` medio 60_70_80_90 rpm+1x5\` soglia sui pedali 60rpm+1x9\` medio 100rmp 67.12 Km 903 m 02:28:25 27.13 Km\h Scott Addict r2
22/05/2012 Show to everybody 05_22_2012 andria, puglia, italy 26.97 Km 71 m 00:56:28 28.65 Km\h Scott Addict r2
20/05/2012 Show to everybody 05_20_2012 andria, puglia, italy 105.22 Km 755 m 03:12:26 32.81 Km\h Scott Addict r2
19/05/2012 Show to everybody Allenamento 19-05-12 alle 12:03 39.23 Km 214 m 01:28:20 26.65 Km\h Scott Addict r2
18/05/2012 Show to everybody 05_18_2012 andria, puglia, italy 74.22 Km 372 m 02:25:50 30.54 Km\h Scott Addict r2
16/05/2012 Show to everybody Allenamento 16-05-12 alle 11:57 36.96 Km 99 m 01:21:51 27.1 Km\h Scott Addict r2
13/05/2012 Show to everybody 05_13_2012 manfredonia, puglia, italy 121.61 Km 1903 m 04:00:04 30.39 Km\h Scott Addict r2
10/05/2012 Show to everybody 05_10_2012 andria, puglia, italy 69.06 Km 380 m 02:22:15 29.13 Km\h Scott Addict r2
08/05/2012 Show to everybody 05_08_2012 andria, puglia, italy 76.32 Km 512 m 02:43:02 28.09 Km\h Scott Addict r2
07/05/2012 Show to everybody Allenamento 07-05-12 alle 11:28 26.73 Km 98 m 00:42:11 38.02 Km\h Scott Addict r2
04/05/2012 Show to everybody Allenamento 04-05-12 alle 11:27 80.55 Km 418 m 02:39:42 30.26 Km\h Scott Addict r2
03/05/2012 Show to everybody 05_03_2012 andria, puglia, italy 47.16 Km 293 m 01:49:32 25.84 Km\h Scott Addict r2
01/05/2012 Show to everybody 05_01_2012 andria, puglia, italy 64.17 Km 463 m 02:12:32 29.05 Km\h Scott Addict r2
29/04/2012 Show to everybody 04_29_2012 manfredonia, puglia, italia 131.46 Km 1984 m 05:07:11 25.68 Km\h Scott Addict r2
27/04/2012 Show to everybody 04_27_2012 andria, puglia, italy 60.85 Km 285 m 02:22:53 25.55 Km\h Scott Addict r2
25/04/2012 Show to everybody 04_25_2012 andria, puglia, italy 91.76 Km 636 m 03:02:09 30.23 Km\h Scott Addict r2
24/04/2012 Show to everybody 04_24_2012 andria, puglia, italy 80.59 Km 355 m 02:57:53 27.18 Km\h Scott Addict r2
22/04/2012 Show to everybody 04_22_2012 canosa di puglia, puglia, italy 90.65 Km 986 m 02:31:48 35.83 Km\h Scott Addict r2
21/04/2012 Show to everybody Allenamento 21-04-12 alle 12:06 35.37 Km 113 m 01:21:22 26.08 Km\h Scott Addict r2
19/04/2012 Show to everybody Allenamento 19-04-12 alle 11:31 62.37 Km 205 m 02:01:37 30.77 Km\h Scott Addict r2
18/04/2012 Show to everybody Allenamento 18-04-12 alle 11:34 78.08 Km 301 m 02:27:57 31.66 Km\h Scott Addict r2
15/04/2012 Show to everybody 04_15_2012 andria, puglia, italy 126.35 Km 1235 m 04:27:19 28.36 Km\h Scott Addict r2
14/04/2012 Show to everybody 04_14_2012 andria, puglia, italy 29.88 Km 290 m 01:40:57 17.76 Km\h Merida Matts t800
12/04/2012 Show to everybody 04_12_2012 andria, puglia, italy 82.32 Km 593 m 03:04:41 26.74 Km\h Scott Addict r2
11/04/2012 Show to everybody 04_11_2012 andria, puglia, italy 45.31 Km 116 m 01:36:59 28.03 Km\h Scott Addict r2
09/04/2012 Show to everybody 04_09_2012 andria, puglia, italy 68.91 Km 564 m 02:43:42 25.26 Km\h Scott Addict r2
08/04/2012 Show to everybody 04_08_2012 andria, puglia, italy 86.21 Km 728 m 03:12:31 26.87 Km\h Scott Addict r2
06/04/2012 Show to everybody 04_06_2012 andria, puglia, italy 95.24 Km 421 m 03:01:51 31.42 Km\h Scott Addict r2
04/04/2012 Show to everybody 04_04_2012 andria, puglia, italy 42.19 Km 205 m 01:37:31 25.96 Km\h Scott Addict r2
01/04/2012 Show to everybody 04_01_2012 andria, puglia, italy 92.91 Km 791 m 03:23:58 27.33 Km\h Scott Addict r2
31/03/2012 Show to everybody 03_31_2012 andria, puglia, italy 69.51 Km 376 m 02:23:10 29.13 Km\h Scott Addict r2
30/03/2012 Show to everybody 03_30_2012 andria, puglia, italy 75.32 Km 395 m 02:37:50 28.63 Km\h Scott Addict r2
27/03/2012 Show to everybody 03_27_2012 andria, puglia, italy 85.73 Km 843 m 03:08:04 27.35 Km\h Scott Addict r2
25/03/2012 Show to everybody 03_25_2012 andria, puglia, italy 90.34 Km 580 m 02:43:46 33.1 Km\h Scott Addict r2
23/03/2012 Show to everybody 03_23_2012 andria, puglia, italy 67.45 Km 305 m 02:31:36 26.7 Km\h Scott Addict r2
21/03/2012 Show to everybody 03_21_2012 andria, puglia, italy 89.23 Km 839 m 03:16:04 27.31 Km\h Scott Addict r2
18/03/2012 Show to everybody 03_18_2012 ostuni, puglia, italy 106.08 Km 1059 m 03:03:56 34.6 Km\h Scott Addict r2
17/03/2012 Show to everybody 03_17_2012 andria, puglia, italy 65.25 Km 165 m 02:40:07 24.45 Km\h Scott Addict r2
15/03/2012 Show to everybody 03_15_2012 andria, puglia, italy 45.13 Km 172 m 01:40:09 27.04 Km\h Scott Addict r2
14/03/2012 Show to everybody 03_14_2012 andria, puglia, italy 82.61 Km 536 m 03:00:19 27.49 Km\h Scott Addict r2
13/03/2012 Show to everybody 03_13_2012 andria, puglia, italy 74.21 Km 400 m 02:32:04 29.28 Km\h Scott Addict r2
11/03/2012 Show to everybody 03_11_2012 andria, puglia, italy 92.19 Km 614 m 03:08:36 29.33 Km\h Scott Addict r2
09/03/2012 Show to everybody 03_09_2012 andria, puglia, italy 49.75 Km 332 m 01:48:15 27.58 Km\h Scott Addict r2
07/03/2012 Show to everybody 03_07_2012 andria, puglia, italy 48.16 Km 372 m 01:45:55 27.28 Km\h Scott Addict r2
06/03/2012 Show to everybody 03_06_2012 andria, puglia, italy 8.52 Km 33 m 00:20:38 24.78 Km\h Scott Addict r2
04/03/2012 Show to everybody 03_04_2012 andria, puglia, italy 103.93 Km 769 m 03:26:49 30.15 Km\h Scott Addict r2
28/02/2012 Show to everybody 02_28_2012 andria, puglia, italy 58.54 Km 514 m 02:12:59 26.41 Km\h Scott Addict r2
26/02/2012 Show to everybody 02_26_2012 campomarino, molise, italy 77.27 Km 844 m 02:11:56 35.14 Km\h Scott Addict r2
26/02/2012 Show to everybody 02_26_2012 termoli, molise, italy 7.88 Km 58 m 00:21:02 22.47 Km\h Scott Addict r2
24/02/2012 Show to everybody 02_24_2012 andria, puglia, italy 71.27 Km 211 m 02:30:43 28.37 Km\h Scott Addict r2
23/02/2012 Show to everybody 02_23_2012 corato, puglia, italy 49.14 Km 527 m 01:59:45 24.62 Km\h Scott Addict r2
19/02/2012 Show to everybody 02_19_2012 andria, puglia, italy 81.31 Km 824 m 03:00:55 26.96 Km\h Scott Addict r2
15/02/2012 Show to everybody 02_15_2012 andria, puglia, italy 80.03 Km 261 m 03:01:10 26.51 Km\h Scott Addict r2
12/02/2012 Show to everybody 02_12_2012 andria, puglia, italy 78.57 Km 513 m 02:51:51 27.43 Km\h Scott Addict r2
11/02/2012 Show to everybody 02_11_2012 andria, puglia, italy 70.08 Km 516 m 02:45:06 25.47 Km\h Scott Addict r2
05/02/2012 Show to everybody 02_05_2012 andria, puglia, italy 99.51 Km 748 m 03:31:17 28.26 Km\h Scott Addict r2
03/02/2012 Show to everybody 02_03_2012 andria, puglia, italy 29.73 Km 102 m 01:02:38 28.48 Km\h Scott Addict r2
29/01/2012 Show to everybody 01_29_2012 andria, puglia, italy 95.6 Km 864 m 03:23:52 28.14 Km\h Scott Addict r2
28/01/2012 Show to everybody 01_28_2012 andria, puglia, italy 58.48 Km 319 m 02:08:44 27.25 Km\h Scott Addict r2
27/01/2012 Show to everybody 01_27_2012 andria, puglia, italy 0.75 Km 24 m 00:02:02 22.22 Km\h Scott Addict r2
22/01/2012 Show to everybody 01_22_2012 andria, puglia, italy 115.7 Km 911 m 04:02:27 28.63 Km\h Scott Addict r2
17/01/2012 Show to everybody 01_17_2012 andria, puglia, italy 49.74 Km 435 m 01:51:58 26.65 Km\h Scott Addict r2
15/01/2012 Show to everybody 01_15_2012 andria, puglia, italy 98.23 Km 825 m 03:24:49 28.78 Km\h Scott Addict r2

Show previous years trainings
This user's bikes.
Scott Addict r2 361 22808.27 Km 187796 m 815:06:06 27.79 Km/h
Merida Matts t800 6 233.74 Km 1852 m 11:17:46 20.63 Km/h
Merida BIG NINE 6 213.52 Km 1727 m 09:56:52 21.61 Km/h

298 points
Kilometers
0
Vertical gain
0
Rank:59

Watch ranking »

 

Bike name

Delete this bike?

Now you follow this users and you can compare your trainings

If you stop following this users you will not be able to compare your trainings with his


bdc-forum.it | 2012-2019 Training Camp v.1.0.15